Portada
METAR-TAF:

METAR-TAF

Aeroports :

Olney-Noble Airport

Olney-Noble, Illinois, Estats Units d'Amèrica

latitud: 38-43-19N, longitud: 088-10-35W, altitud: 147 m

Observació

L'informe es va fer fa 49 minuts, a les 01:10 UTC
Vent 3 kt del Sud/Sud-Est
Temperatura 26°C
Humitat 61%
Pressió 1014 hPa
Visibilitat: 16.1 km
Cel clar

METAR: KOLY 250110Z AUTO 15003KT 10SM CLR 26/18 A2993 RMK AO2 T02610176

Hora: 20:59 (01:59 UTC)


TAF: manca

Observacions i pronòstics meteorològics de més de 4000 aeroports (METAR i TAF).

Les estacions disponibles són els punts grocs i vermells al mapa.

Posi el ratolí al punt desitjat per veure el nom de l'estació.

Feu clic per veure les observacions i els pronòstics meteorològics.

Per canviar el mapa: feu clic els botons verds amb una creu de color negre per apropar; al botó verd amb un guió per allunyar la imatge; o en les fletxes verdes per a mapes adjacents.


METAR-TAF: